Time;durP1;ratioP1;P1;durP2;ratioP2;P2;SDS_P1;SDS_P2;PMS_P1;PMS_P2;Temp;Humidity;BMP_temperature;BMP_pressure;BME280_temperature;BME280_humidity;BME280_pressure;Samples;Min_cycle;Max_cycle;Signal;HPM_P1;HPM_P2
2022/09/28 00:00:56;;;;;;;4.10;0.70;;;9.70;99.90;;;;;;5061189;28;21004;-54
2022/09/28 00:03:22;;;;;;;4.28;0.80;;;9.60;99.90;;;;;;5062616;28;20468;-54
2022/09/28 00:05:48;;;;;;;4.40;0.70;;;9.60;99.90;;;;;;5066078;28;20780;-54
2022/09/28 00:08:13;;;;;;;3.80;0.63;;;9.70;99.90;;;;;;5060201;28;20394;-54
2022/09/28 00:10:40;;;;;;;4.28;1.00;;;9.60;99.90;;;;;;5059650;28;20379;-54
2022/09/28 00:13:06;;;;;;;4.20;0.60;;;9.60;99.90;;;;;;5053581;28;20394;-53
2022/09/28 00:15:32;;;;;;;4.00;0.80;;;9.60;99.90;;;;;;5065572;28;20408;-53
2022/09/28 00:17:58;;;;;;;4.20;0.80;;;10.70;99.90;;;;;;5058790;28;20405;-53
2022/09/28 00:20:23;;;;;;;4.38;0.70;;;9.70;99.90;;;;;;5061059;28;20378;-53
2022/09/28 00:22:49;;;;;;;4.70;0.80;;;9.70;99.90;;;;;;5066882;28;20453;-53
2022/09/28 00:25:15;;;;;;;4.33;0.80;;;9.70;99.90;;;;;;5062881;28;20743;-54
2022/09/28 00:27:42;;;;;;;4.43;0.98;;;9.70;99.90;;;;;;5065966;28;20384;-53
2022/09/28 00:30:08;;;;;;;4.00;0.60;;;9.80;99.90;;;;;;5063469;28;20491;-53
2022/09/28 00:32:34;;;;;;;4.80;0.80;;;9.80;99.90;;;;;;5062852;28;20401;-54
2022/09/28 00:34:59;;;;;;;4.50;0.90;;;9.90;99.90;;;;;;5066468;28;20486;-53
2022/09/28 00:37:25;;;;;;;3.80;0.50;;;9.90;99.90;;;;;;5064671;28;20482;-53
2022/09/28 00:39:50;;;;;;;4.20;0.87;;;9.90;99.90;;;;;;5053374;28;20531;-53
2022/09/28 00:42:22;;;;;;;4.30;0.83;;;9.90;99.90;;;;;;5065367;28;20417;-54
2022/09/28 00:44:58;;;;;;;4.90;1.00;;;9.90;99.90;;;;;;5063944;28;20832;-53
2022/09/28 00:47:48;;;;;;;5.18;0.80;;;9.90;99.90;;;;;;5065479;28;20808;-53
2022/09/28 00:50:31;;;;;;;4.90;1.00;;;10.00;99.90;;;;;;5065727;28;20753;-54
2022/09/28 00:53:20;;;;;;;4.15;0.80;;;9.90;99.90;;;;;;5066035;28;20380;-53
2022/09/28 00:56:17;;;;;;;4.00;0.70;;;9.90;99.90;;;;;;5062821;28;20796;-53
2022/09/28 00:58:47;;;;;;;4.68;0.80;;;10.00;99.90;;;;;;5065579;28;20412;-54
2022/09/28 01:01:13;;;;;;;4.70;0.80;;;10.20;99.90;;;;;;5054509;28;20408;-53
2022/09/28 01:03:48;;;;;;;4.23;0.90;;;10.10;99.90;;;;;;5069023;28;20374;-54
2022/09/28 01:06:22;;;;;;;4.10;0.65;;;10.30;99.90;;;;;;5061549;28;20399;-54
2022/09/28 01:08:50;;;;;;;6.05;1.00;;;10.20;99.90;;;;;;5057729;28;20392;-53
2022/09/28 01:11:19;;;;;;;4.03;0.90;;;10.30;99.90;;;;;;5065773;28;20380;-54
2022/09/28 01:13:49;;;;;;;5.40;0.77;;;10.30;99.90;;;;;;5066989;28;20847;-54
2022/09/28 01:16:45;;;;;;;4.10;0.80;;;10.30;99.90;;;;;;5066158;28;20469;-54
2022/09/28 01:19:31;;;;;;;3.80;0.70;;;10.20;99.90;;;;;;5066815;28;20392;-54
2022/09/28 01:22:15;;;;;;;4.90;0.75;;;10.20;99.90;;;;;;5068990;28;20376;-54
2022/09/28 01:24:53;;;;;;;4.77;1.10;;;10.30;99.90;;;;;;5066227;28;20386;-54
2022/09/28 01:27:31;;;;;;;6.00;0.80;;;10.40;99.90;;;;;;5060730;28;20486;-54
2022/09/28 01:30:09;;;;;;;5.78;0.82;;;10.40;99.90;;;;;;5063417;28;20477;-54
2022/09/28 01:32:54;;;;;;;6.30;0.75;;;10.50;99.90;;;;;;5064694;28;21037;-54
2022/09/28 01:35:19;;;;;;;4.40;0.90;;;10.40;99.90;;;;;;5065281;28;20861;-55
2022/09/28 01:37:57;;;;;;;4.72;0.90;;;10.50;99.90;;;;;;5056101;28;20415;-54
2022/09/28 01:40:25;;;;;;;4.30;0.70;;;10.40;99.90;;;;;;5057557;28;20467;-54
2022/09/28 01:42:57;;;;;;;4.30;0.90;;;10.40;99.90;;;;;;5062901;28;20525;-53
2022/09/28 01:45:27;;;;;;;3.90;0.70;;;10.30;99.90;;;;;;5065991;28;20450;-54
2022/09/28 01:47:58;;;;;;;6.10;0.90;;;10.40;99.90;;;;;;5068435;28;20394;-54
2022/09/28 01:50:28;;;;;;;5.10;1.23;;;10.40;99.90;;;;;;5065318;28;20383;-54
2022/09/28 01:53:01;;;;;;;5.05;0.90;;;10.40;99.90;;;;;;5059895;28;20459;-54
2022/09/28 01:55:34;;;;;;;6.30;1.00;;;10.40;99.90;;;;;;5064959;28;20504;-54
2022/09/28 01:57:59;;;;;;;6.50;1.00;;;10.30;99.90;;;;;;5063299;28;20380;-54
2022/09/28 02:00:26;;;;;;;5.50;0.90;;;10.30;99.90;;;;;;5064903;28;20895;-54
2022/09/28 02:02:58;;;;;;;6.88;0.90;;;10.40;99.90;;;;;;5061308;28;20373;-54
2022/09/28 02:05:31;;;;;;;4.70;1.00;;;10.40;99.90;;;;;;5061603;28;20438;-54
2022/09/28 02:08:14;;;;;;;6.30;0.90;;;10.40;99.90;;;;;;5063790;28;20375;-54
2022/09/28 02:10:59;;;;;;;4.30;0.70;;;10.50;99.90;;;;;;5061823;28;20475;-54
2022/09/28 02:13:32;;;;;;;4.87;1.03;;;10.50;99.90;;;;;;5068716;28;20399;-54
2022/09/28 02:16:25;;;;;;;4.63;0.90;;;10.50;99.90;;;;;;5070569;28;20411;-54
2022/09/28 02:18:51;;;;;;;5.80;1.17;;;10.50;99.90;;;;;;5066028;28;20470;-54
2022/09/28 02:21:24;;;;;;;4.80;0.90;;;10.60;99.90;;;;;;5062327;28;20830;-54
2022/09/28 02:24:01;;;;;;;4.95;0.82;;;10.60;99.90;;;;;;5065344;28;20376;-54
2022/09/28 02:26:48;;;;;;;5.30;1.00;;;10.60;99.90;;;;;;5065553;28;20381;-54
2022/09/28 02:29:13;;;;;;;6.07;1.10;;;10.70;99.90;;;;;;5067401;28;20411;-54
2022/09/28 02:31:39;;;;;;;5.30;0.90;;;10.70;99.90;;;;;;5066820;28;20891;-54
2022/09/28 02:34:05;;;;;;;8.17;1.40;;;10.80;99.90;;;;;;5065170;28;20864;-54
2022/09/28 02:36:32;;;;;;;5.80;1.10;;;10.70;99.90;;;;;;5064091;28;20510;-54
2022/09/28 02:39:01;;;;;;;5.88;1.05;;;10.70;99.90;;;;;;5064154;28;20411;-54
2022/09/28 02:42:02;;;;;;;5.22;1.15;;;10.90;99.90;;;;;;5067978;28;20386;-54
2022/09/28 02:44:48;;;;;;;4.82;1.02;;;10.80;99.90;;;;;;5058142;28;20390;-54
2022/09/28 02:47:51;;;;;;;6.97;1.42;;;10.80;99.90;;;;;;5059418;28;20886;-54
2022/09/28 02:50:40;;;;;;;3.90;0.87;;;10.80;99.90;;;;;;5067351;28;20433;-54
2022/09/28 02:53:31;;;;;;;4.65;1.20;;;10.80;99.90;;;;;;5066951;28;20867;-53
2022/09/28 02:56:09;;;;;;;5.60;1.30;;;10.70;99.90;;;;;;5062033;28;20405;-53
2022/09/28 02:58:55;;;;;;;6.00;1.40;;;10.70;99.90;;;;;;5064230;28;20376;-53
2022/09/28 03:01:26;;;;;;;5.93;1.25;;;10.70;99.90;;;;;;5011244;28;20882;-54
2022/09/28 03:04:17;;;;;;;6.95;1.02;;;10.70;99.90;;;;;;5063898;28;20403;-53
2022/09/28 03:06:53;;;;;;;6.00;1.50;;;10.60;99.90;;;;;;5067897;28;20390;-53
2022/09/28 03:09:28;;;;;;;4.90;0.90;;;10.60;99.90;;;;;;5058184;28;20478;-54
2022/09/28 03:12:03;;;;;;;4.80;1.00;;;10.60;99.90;;;;;;5066682;28;20482;-54
2022/09/28 03:14:29;;;;;;;5.45;1.10;;;10.60;99.90;;;;;;5058487;28;20387;-54
2022/09/28 03:16:54;;;;;;;6.73;1.53;;;10.70;99.90;;;;;;5066526;28;20411;-53
2022/09/28 03:19:26;;;;;;;6.30;0.90;;;10.80;99.90;;;;;;5062799;28;20418;-54
2022/09/28 03:21:53;;;;;;;8.35;1.08;;;10.80;99.90;;;;;;5060814;28;20502;-54
2022/09/28 03:24:18;;;;;;;5.83;1.27;;;10.80;99.90;;;;;;5063752;28;20387;-54
2022/09/28 03:26:44;;;;;;;5.50;1.10;;;10.80;99.90;;;;;;5064274;28;20864;-54
2022/09/28 03:29:09;;;;;;;5.10;1.10;;;10.90;99.90;;;;;;5063308;28;20424;-54
2022/09/28 03:31:35;;;;;;;5.30;1.20;;;11.00;99.90;;;;;;5065697;28;20399;-54
2022/09/28 03:34:01;;;;;;;5.70;0.70;;;10.90;99.90;;;;;;5065809;28;20845;-54
2022/09/28 03:36:26;;;;;;;3.90;0.53;;;10.70;99.90;;;;;;5054794;28;20411;-54
2022/09/28 03:38:55;;;;;;;4.10;0.60;;;10.60;99.90;;;;;;5060998;28;20390;-54
2022/09/28 03:41:22;;;;;;;4.90;0.60;;;10.40;99.90;;;;;;5055112;28;20380;-54
2022/09/28 03:43:48;;;;;;;4.30;0.80;;;10.30;99.90;;;;;;5063636;28;20410;-54
2022/09/28 03:46:13;;;;;;;5.25;0.60;;;10.60;99.90;;;;;;5068077;28;20429;-54
2022/09/28 03:48:39;;;;;;;5.00;0.60;;;10.40;99.90;;;;;;5060968;28;20408;-54
2022/09/28 03:51:08;;;;;;;5.30;0.75;;;10.30;99.90;;;;;;5066582;28;20372;-54
2022/09/28 03:53:34;;;;;;;3.72;0.60;;;10.30;99.90;;;;;;5065697;28;20407;-54
2022/09/28 03:56:10;;;;;;;5.75;1.10;;;10.30;99.90;;;;;;5060345;28;20405;-54
2022/09/28 03:58:36;;;;;;;4.18;0.90;;;10.20;99.90;;;;;;5063933;28;20408;-54
2022/09/28 04:01:07;;;;;;;7.55;1.00;;;10.20;99.90;;;;;;5059297;28;20414;-54
2022/09/28 04:03:33;;;;;;;4.70;0.90;;;10.20;99.90;;;;;;5060218;28;20465;-54
2022/09/28 04:05:58;;;;;;;5.97;1.00;;;10.20;99.90;;;;;;5061063;28;20391;-54
2022/09/28 04:08:24;;;;;;;4.80;1.00;;;10.20;99.90;;;;;;5066715;28;20475;-54
2022/09/28 04:10:50;;;;;;;5.70;0.75;;;10.30;99.90;;;;;;5065634;28;20372;-54
2022/09/28 04:13:15;;;;;;;5.40;0.90;;;10.20;99.90;;;;;;5066023;28;20781;-54
2022/09/28 04:15:42;;;;;;;4.60;1.20;;;10.20;99.90;;;;;;5066091;28;20457;-54
2022/09/28 04:18:10;;;;;;;6.10;0.90;;;10.20;99.90;;;;;;5058608;28;20818;-54
2022/09/28 04:20:35;;;;;;;5.43;1.10;;;10.50;99.90;;;;;;5066494;28;20384;-54
2022/09/28 04:23:01;;;;;;;5.03;0.80;;;10.30;99.90;;;;;;5069430;28;20429;-54
2022/09/28 04:25:26;;;;;;;4.03;0.60;;;10.30;99.90;;;;;;5057219;28;20397;-54
2022/09/28 04:30:36;;;;;;;4.70;0.70;;;10.20;99.90;;;;;;5071585;28;20442;-54
2022/09/28 04:33:01;;;;;;;4.80;0.50;;;10.30;99.90;;;;;;5072636;28;20372;-54
2022/09/28 04:35:27;;;;;;;4.70;0.70;;;10.30;99.90;;;;;;5072313;28;20387;-54
2022/09/28 04:37:53;;;;;;;4.32;0.70;;;10.30;99.90;;;;;;5073271;28;20436;-54
2022/09/28 04:40:18;;;;;;;6.13;0.70;;;10.30;99.90;;;;;;5072662;28;20375;-55
2022/09/28 04:42:44;;;;;;;7.00;0.80;;;10.40;99.90;;;;;;5072778;28;20379;-54
2022/09/28 04:45:09;;;;;;;3.70;0.60;;;10.30;99.90;;;;;;5073053;28;20508;-54
2022/09/28 04:47:35;;;;;;;3.87;0.60;;;10.20;99.90;;;;;;5072716;28;20376;-54
2022/09/28 04:50:01;;;;;;;4.25;0.70;;;10.00;99.90;;;;;;5072818;28;20387;-54
2022/09/28 04:52:26;;;;;;;4.00;0.80;;;10.10;99.90;;;;;;5072357;28;20818;-54
2022/09/28 04:54:52;;;;;;;5.72;0.88;;;10.20;99.90;;;;;;5072807;28;20388;-54
2022/09/28 04:57:17;;;;;;;5.90;0.98;;;10.30;99.90;;;;;;5072571;28;20544;-54
2022/09/28 04:59:43;;;;;;;3.73;0.80;;;10.30;99.90;;;;;;5071576;28;20877;-54
2022/09/28 05:02:09;;;;;;;3.92;0.70;;;10.30;99.90;;;;;;5072820;28;20411;-54
2022/09/28 05:04:34;;;;;;;4.80;0.80;;;10.20;99.90;;;;;;5071854;28;20783;-54
2022/09/28 05:07:00;;;;;;;4.93;0.90;;;10.30;99.90;;;;;;5072501;28;20733;-54
2022/09/28 05:09:25;;;;;;;4.10;0.80;;;10.40;99.90;;;;;;5071704;28;20376;-54
2022/09/28 05:11:52;;;;;;;5.30;0.80;;;10.30;99.90;;;;;;5072400;28;20410;-54
2022/09/28 05:14:23;;;;;;;4.97;0.90;;;10.30;99.90;;;;;;5072560;28;20475;-54
2022/09/28 05:16:49;;;;;;;5.70;0.80;;;10.50;99.90;;;;;;5072174;28;20407;-54
2022/09/28 05:19:14;;;;;;;4.80;0.73;;;10.30;99.90;;;;;;5072728;28;20825;-54
2022/09/28 05:21:44;;;;;;;5.40;1.00;;;10.30;99.90;;;;;;5071905;28;20430;-54
2022/09/28 05:24:10;;;;;;;5.90;0.80;;;10.30;99.90;;;;;;5072876;28;20364;-54
2022/09/28 05:26:36;;;;;;;5.10;0.80;;;10.30;99.90;;;;;;5070172;28;20379;-54
2022/09/28 05:29:02;;;;;;;6.50;0.90;;;10.30;99.90;;;;;;5072055;28;20861;-54
2022/09/28 05:31:27;;;;;;;5.50;0.80;;;10.30;99.90;;;;;;5071491;28;20414;-54
2022/09/28 05:33:53;;;;;;;4.73;0.77;;;10.30;99.90;;;;;;5072456;28;20905;-54
2022/09/28 05:36:19;;;;;;;4.50;0.80;;;10.20;99.90;;;;;;5071913;28;20431;-54
2022/09/28 05:38:45;;;;;;;3.90;0.70;;;10.10;99.90;;;;;;5071519;28;20387;-54
2022/09/28 05:41:11;;;;;;;4.10;0.80;;;10.10;99.90;;;;;;5071989;28;20424;-54
2022/09/28 05:43:37;;;;;;;4.97;0.93;;;11.10;99.90;;;;;;5071875;28;20486;-54
2022/09/28 05:46:08;;;;;;;5.10;0.90;;;10.20;99.90;;;;;;5071538;28;20376;-54
2022/09/28 05:48:34;;;;;;;8.02;1.20;;;10.20;99.90;;;;;;5070975;28;20388;-54
2022/09/28 05:51:00;;;;;;;5.40;1.20;;;10.20;99.90;;;;;;5071379;28;20521;-54
2022/09/28 05:53:26;;;;;;;5.40;1.40;;;10.10;99.90;;;;;;5071337;28;20426;-54
2022/09/28 05:55:51;;;;;;;6.50;1.40;;;10.20;99.90;;;;;;5071396;28;20810;-54
2022/09/28 05:58:17;;;;;;;5.27;1.27;;;10.10;99.90;;;;;;5071445;28;20461;-54
2022/09/28 06:00:42;;;;;;;4.60;1.40;;;10.10;99.90;;;;;;5071387;28;20387;-54
2022/09/28 06:03:12;;;;;;;6.93;1.52;;;10.10;99.90;;;;;;5070264;28;20383;-55
2022/09/28 06:05:38;;;;;;;6.00;1.40;;;10.10;99.90;;;;;;5060498;28;20427;-55
2022/09/28 06:08:07;;;;;;;6.10;1.40;;;10.10;99.90;;;;;;5059390;28;20393;-54
2022/09/28 06:10:33;;;;;;;4.90;1.50;;;10.10;99.90;;;;;;5069355;28;20714;-54
2022/09/28 06:12:59;;;;;;;6.78;1.52;;;10.10;99.90;;;;;;5070717;28;20441;-54
2022/09/28 06:15:27;;;;;;;8.70;1.70;;;10.30;99.90;;;;;;5051201;28;20920;-55
2022/09/28 06:18:13;;;;;;;7.20;1.48;;;10.30;99.90;;;;;;5070189;28;20395;-54
2022/09/28 06:20:40;;;;;;;4.67;1.40;;;10.40;99.90;;;;;;5070016;28;20470;-54
2022/09/28 06:23:06;;;;;;;5.22;1.70;;;10.60;99.90;;;;;;5070553;28;20419;-54
2022/09/28 06:25:32;;;;;;;7.85;1.85;;;10.60;99.90;;;;;;5069923;28;20416;-54
2022/09/28 06:28:00;;;;;;;5.78;1.60;;;10.70;99.90;;;;;;5070788;28;20623;-54
2022/09/28 06:30:28;;;;;;;6.10;1.53;;;10.70;99.90;;;;;;5069714;28;20407;-54
2022/09/28 06:32:59;;;;;;;5.43;1.55;;;10.70;99.90;;;;;;5071089;28;20399;-54
2022/09/28 06:35:29;;;;;;;5.50;1.42;;;10.80;99.90;;;;;;5069719;28;20395;-54
2022/09/28 06:37:55;;;;;;;5.43;1.30;;;10.80;99.90;;;;;;5070080;28;20396;-54
2022/09/28 06:40:23;;;;;;;5.10;1.70;;;10.80;99.90;;;;;;5056069;28;20507;-55
2022/09/28 06:42:56;;;;;;;6.90;1.70;;;10.90;99.90;;;;;;5068039;28;20394;-55
2022/09/28 06:45:24;;;;;;;5.90;1.48;;;10.90;99.90;;;;;;5069974;28;20386;-55
2022/09/28 06:48:00;;;;;;;6.50;1.67;;;10.70;99.90;;;;;;5069647;28;20372;-54
2022/09/28 06:50:28;;;;;;;5.18;1.60;;;10.90;99.90;;;;;;5068891;28;20380;-54
2022/09/28 06:52:54;;;;;;;5.97;1.75;;;10.90;99.90;;;;;;5070426;28;20449;-54
2022/09/28 06:55:20;;;;;;;5.80;1.90;;;10.80;99.90;;;;;;5069862;28;20418;-54
2022/09/28 06:57:47;;;;;;;5.70;2.10;;;10.90;99.90;;;;;;5069769;28;20449;-54
2022/09/28 07:00:13;;;;;;;6.72;1.90;;;10.80;99.90;;;;;;5070081;28;20480;-54
2022/09/28 07:02:38;;;;;;;7.30;2.40;;;10.80;99.90;;;;;;5069271;28;20873;-54
2022/09/28 07:05:06;;;;;;;6.20;2.05;;;10.80;99.90;;;;;;5070115;28;20374;-54
2022/09/28 07:07:32;;;;;;;9.02;2.40;;;10.80;99.90;;;;;;5069769;28;20885;-54
2022/09/28 07:09:58;;;;;;;5.38;2.17;;;10.80;99.90;;;;;;5076505;28;20456;-54
2022/09/28 07:12:24;;;;;;;6.20;2.07;;;10.90;99.90;;;;;;5069485;28;20386;-55
2022/09/28 07:14:55;;;;;;;6.18;1.80;;;11.10;99.90;;;;;;5070243;28;20741;-54
2022/09/28 07:17:21;;;;;;;6.97;1.98;;;10.80;99.90;;;;;;5069142;28;20965;-55
2022/09/28 07:19:51;;;;;;;6.20;2.20;;;11.00;99.90;;;;;;5070405;28;20384;-54
2022/09/28 07:22:20;;;;;;;6.15;1.90;;;10.90;99.90;;;;;;5069591;28;20384;-55
2022/09/28 07:24:47;;;;;;;6.05;2.10;;;10.80;99.90;;;;;;5069500;28;20456;-54
2022/09/28 07:27:12;;;;;;;6.47;2.17;;;10.90;99.90;;;;;;5070163;28;20456;-54
2022/09/28 07:29:38;;;;;;;6.10;1.70;;;10.90;99.90;;;;;;5069011;28;20877;-54
2022/09/28 07:32:04;;;;;;;6.55;1.67;;;11.00;99.90;;;;;;5070188;28;20376;-54
2022/09/28 07:34:29;;;;;;;7.20;2.10;;;11.00;99.90;;;;;;5069757;28;20387;-54
2022/09/28 07:36:57;;;;;;;8.30;2.30;;;11.10;99.90;;;;;;5069544;28;20843;-54
2022/09/28 07:39:23;;;;;;;9.68;2.35;;;11.30;99.90;;;;;;5069308;28;20489;-55
2022/09/28 07:41:49;;;;;;;6.65;2.03;;;11.30;99.90;;;;;;5069612;28;20879;-54
2022/09/28 07:44:15;;;;;;;6.20;2.40;;;11.30;99.90;;;;;;5070449;28;20448;-54
2022/09/28 07:46:43;;;;;;;5.85;2.13;;;11.30;99.90;;;;;;5069472;28;20944;-54
2022/09/28 07:49:08;;;;;;;9.32;2.38;;;11.30;99.90;;;;;;5070176;28;20383;-54
2022/09/28 07:51:34;;;;;;;5.60;2.03;;;11.50;99.90;;;;;;5069602;28;20713;-55
2022/09/28 07:54:00;;;;;;;6.05;2.00;;;11.40;99.90;;;;;;5070641;28;20390;-54
2022/09/28 07:56:25;;;;;;;6.25;2.33;;;11.30;99.90;;;;;;5055313;28;20404;-55
2022/09/28 07:58:51;;;;;;;6.88;2.53;;;11.20;99.90;;;;;;5073866;28;20417;-55
2022/09/28 08:01:18;;;;;;;7.30;2.60;;;11.30;99.90;;;;;;5073870;28;20375;-54
2022/09/28 08:03:45;;;;;;;7.00;2.17;;;11.30;99.90;;;;;;5073305;28;20404;-54
2022/09/28 08:06:12;;;;;;;6.97;2.53;;;11.40;99.90;;;;;;5073990;28;20391;-55
2022/09/28 08:08:42;;;;;;;7.10;2.20;;;11.70;99.90;;;;;;5073163;28;20391;-54
2022/09/28 08:11:09;;;;;;;6.82;2.50;;;11.50;99.90;;;;;;5073407;28;20383;-54
2022/09/28 08:13:36;;;;;;;5.90;1.80;;;11.40;99.90;;;;;;5055061;28;20387;-54
2022/09/28 08:16:02;;;;;;;9.13;1.90;;;11.30;99.90;;;;;;5073489;28;20774;-54
2022/09/28 08:18:29;;;;;;;9.50;2.75;;;11.40;99.90;;;;;;5072981;28;20410;-54
2022/09/28 08:23:39;;;;;;;6.18;2.20;;;11.80;99.90;;;;;;5072340;28;20477;-54
2022/09/28 08:26:05;;;;;;;6.77;2.13;;;11.80;99.90;;;;;;5072988;28;20390;-54
2022/09/28 08:28:31;;;;;;;7.00;2.30;;;11.60;99.90;;;;;;5072689;28;20404;-54
2022/09/28 08:30:59;;;;;;;6.30;2.30;;;11.50;99.90;;;;;;5073495;28;20492;-54
2022/09/28 08:33:24;;;;;;;7.90;2.13;;;11.30;99.90;;;;;;5072418;28;20414;-56
2022/09/28 08:35:58;;;;;;;7.80;2.00;;;11.40;99.90;;;;;;5073046;28;20399;-54
2022/09/28 08:38:25;;;;;;;6.97;2.40;;;11.40;99.90;;;;;;5072205;28;20383;-55
2022/09/28 08:41:02;;;;;;;8.00;2.50;;;11.40;99.90;;;;;;5072990;28;20440;-54
2022/09/28 08:43:52;;;;;;;6.22;2.13;;;11.40;99.90;;;;;;5071672;28;20726;-55
2022/09/28 08:46:22;;;;;;;9.15;2.47;;;11.60;51.70;;;;;;5072866;28;20803;-54
2022/09/28 08:49:15;;;;;;;8.55;2.38;;;11.90;1.00;;;;;;5072070;28;20425;-54
2022/09/28 08:52:02;;;;;;;7.68;2.03;;;11.90;1.00;;;;;;5028523;28;20487;-54
2022/09/28 08:54:37;;;;;;;7.00;2.10;;;11.90;1.00;;;;;;5072344;28;20584;-54
2022/09/28 08:57:14;;;;;;;6.70;1.90;;;12.00;1.00;;;;;;5072492;28;20430;-54
2022/09/28 08:59:40;;;;;;;8.30;1.90;;;12.20;1.00;;;;;;5071728;28;20490;-52
2022/09/28 09:02:18;;;;;;;6.85;2.17;;;12.50;1.00;;;;;;5072529;28;20868;-53
2022/09/28 09:04:44;;;;;;;6.60;2.20;;;12.50;1.00;;;;;;5071771;28;20372;-52
2022/09/28 09:07:45;;;;;;;7.20;2.27;;;12.90;1.00;;;;;;5071685;28;20391;-52
2022/09/28 09:10:19;;;;;;;5.78;2.13;;;13.00;99.90;;;;;;5071872;28;20464;-53
2022/09/28 09:13:03;;;;;;;6.82;2.00;;;12.90;99.90;;;;;;5071947;28;20386;-52
2022/09/28 09:15:37;;;;;;;6.20;2.07;;;12.90;99.90;;;;;;5051915;28;20388;-52
2022/09/28 09:18:11;;;;;;;7.40;1.98;;;12.90;99.90;;;;;;5052064;28;20698;-52
2022/09/28 09:20:58;;;;;;;6.90;2.20;;;12.90;99.90;;;;;;5054495;28;20808;-52
2022/09/28 09:23:33;;;;;;;7.57;1.83;;;12.80;99.90;;;;;;5074326;28;20390;-53
2022/09/28 09:26:16;;;;;;;7.47;2.10;;;12.80;99.90;;;;;;5092310;28;20742;-52
2022/09/28 09:29:01;;;;;;;6.80;1.55;;;13.20;99.90;;;;;;5091576;28;20454;-52
2022/09/28 09:31:37;;;;;;;6.00;1.83;;;13.10;99.90;;;;;;5091482;28;20872;-52
2022/09/28 09:34:18;;;;;;;7.35;1.90;;;13.10;1.00;;;;;;5092205;28;20483;-53
2022/09/28 09:37:16;;;;;;;7.32;2.15;;;12.90;99.90;;;;;;5091483;28;20436;-53
2022/09/28 09:40:16;;;;;;;6.68;1.80;;;13.20;1.00;;;;;;5090727;28;20389;-52
2022/09/28 09:43:00;;;;;;;5.82;2.00;;;13.10;99.90;;;;;;5091473;28;20573;-52
2022/09/28 09:45:55;;;;;;;5.70;1.70;;;13.30;99.90;;;;;;5091209;28;20378;-54
2022/09/28 09:48:35;;;;;;;7.25;2.00;;;13.50;99.90;;;;;;5092105;28;20374;-53
2022/09/28 09:51:31;;;;;;;7.30;1.90;;;13.70;1.00;;;;;;5091851;28;20468;-52
2022/09/28 09:54:16;;;;;;;6.43;2.10;;;13.90;1.00;;;;;;5074574;28;20390;-52
2022/09/28 09:56:56;;;;;;;6.63;2.10;;;14.20;1.00;;;;;;5090943;28;20445;-53
2022/09/28 09:59:32;;;;;;;6.70;2.50;;;14.60;1.00;;;;;;5091562;28;20404;-53
2022/09/28 10:02:02;;;;;;;6.35;2.20;;;14.90;1.00;;;;;;5091569;28;20374;-53
2022/09/28 10:04:37;;;;;;;9.30;3.17;;;14.70;1.00;;;;;;5091345;28;20422;-53
2022/09/28 10:07:05;;;;;;;7.90;2.47;;;15.00;68.30;;;;;;5091668;28;20375;-56
2022/09/28 10:09:38;;;;;;;9.00;2.78;;;16.20;99.90;;;;;;5090585;28;20366;-53
2022/09/28 10:12:08;;;;;;;7.30;2.60;;;14.50;99.90;;;;;;5091404;28;20382;-53
2022/09/28 10:14:34;;;;;;;6.20;2.10;;;14.20;99.90;;;;;;5076030;28;20479;-53
2022/09/28 10:17:02;;;;;;;7.00;2.17;;;14.50;99.90;;;;;;5070559;28;20893;-53
2022/09/28 10:19:31;;;;;;;7.20;2.10;;;14.10;1.00;;;;;;5070917;28;20455;-54
2022/09/28 10:22:01;;;;;;;8.32;2.40;;;14.10;31.60;;;;;;5083029;28;20374;-53
2022/09/28 10:24:45;;;;;;;5.47;1.80;;;14.50;99.90;;;;;;5090430;28;20390;-53
2022/09/28 10:27:15;;;;;;;7.17;2.63;;;14.40;20.60;;;;;;5090488;28;20857;-53
2022/09/28 10:30:10;;;;;;;7.80;2.67;;;14.50;99.90;;;;;;5090137;28;20493;-53
2022/09/28 10:32:39;;;;;;;5.80;2.10;;;14.30;99.90;;;;;;5068644;28;20485;-53
2022/09/28 10:35:17;;;;;;;6.90;2.58;;;14.20;8.70;;;;;;5091091;28;20385;-53
2022/09/28 10:37:53;;;;;;;7.22;2.42;;;14.30;99.90;;;;;;5089818;28;20414;-53
2022/09/28 10:40:43;;;;;;;8.67;2.30;;;14.10;1.00;;;;;;5090887;28;20424;-53
2022/09/28 10:43:32;;;;;;;6.57;1.98;;;14.00;1.00;;;;;;5090510;28;20481;-53
2022/09/28 10:46:19;;;;;;;9.18;1.92;;;14.00;1.00;;;;;;5091293;28;20488;-53
2022/09/28 10:49:21;;;;;;;7.47;2.60;;;14.10;1.00;;;;;;5090471;28;20425;-53
2022/09/28 10:51:57;;;;;;;8.75;2.00;;;14.20;1.00;;;;;;5089966;28;20369;-53
2022/09/28 10:54:28;;;;;;;8.48;2.60;;;14.30;99.90;;;;;;5090529;28;20385;-53
2022/09/28 10:56:56;;;;;;;6.30;1.95;;;14.60;1.00;;;;;;5090633;28;20409;-53
2022/09/28 10:59:27;;;;;;;7.45;2.20;;;14.30;99.90;;;;;;5090092;28;20397;-53
2022/09/28 11:02:12;;;;;;;6.75;1.80;;;14.40;99.90;;;;;;5090351;28;20391;-53
2022/09/28 11:04:40;;;;;;;6.28;1.70;;;14.20;99.90;;;;;;5089803;28;20373;-53
2022/09/28 11:07:23;;;;;;;7.30;2.13;;;14.10;99.90;;;;;;5090500;28;20430;-53
2022/09/28 11:09:51;;;;;;;6.20;2.10;;;14.10;99.90;;;;;;5089655;28;20377;-53
2022/09/28 11:12:22;;;;;;;7.47;2.25;;;14.70;99.90;;;;;;5089940;28;20405;-53
2022/09/28 11:14:54;;;;;;;7.82;2.30;;;14.80;99.90;;;;;;5077427;28;20451;-53
2022/09/28 11:17:28;;;;;;;8.95;2.00;;;15.00;99.90;;;;;;5069747;28;20431;-53
2022/09/28 11:19:59;;;;;;;6.68;2.00;;;14.60;99.90;;;;;;5052248;28;20797;-53
2022/09/28 11:22:28;;;;;;;5.90;2.00;;;13.90;92.90;;;;;;5085408;28;20458;-53
2022/09/28 11:25:15;;;;;;;7.80;2.00;;;13.90;99.90;;;;;;5090044;28;20465;-54
2022/09/28 11:27:45;;;;;;;5.10;1.63;;;14.00;99.90;;;;;;5089384;28;20500;-54
2022/09/28 11:30:33;;;;;;;7.40;1.80;;;13.90;99.90;;;;;;5089686;28;20423;-54
2022/09/28 11:33:10;;;;;;;6.35;2.08;;;14.30;88.10;;;;;;5089905;28;20506;-54
2022/09/28 11:35:54;;;;;;;6.67;1.90;;;14.50;99.90;;;;;;5089730;28;20374;-54
2022/09/28 11:38:37;;;;;;;8.03;1.77;;;15.00;99.90;;;;;;5090055;28;20374;-55
2022/09/28 11:41:40;;;;;;;6.95;1.70;;;15.30;99.90;;;;;;5090263;28;20384;-55
2022/09/28 11:44:36;;;;;;;6.80;1.90;;;15.80;94.40;;;;;;5090108;28;20375;-55
2022/09/28 11:47:23;;;;;;;5.70;1.60;;;15.50;1.00;;;;;;5089821;28;20378;-55
2022/09/28 11:50:00;;;;;;;8.35;1.90;;;14.80;1.00;;;;;;5089765;28;20572;-55
2022/09/28 11:52:38;;;;;;;5.38;1.55;;;14.50;1.00;;;;;;5089684;28;20386;-55
2022/09/28 11:55:33;;;;;;;5.65;1.85;;;14.20;1.00;;;;;;5090253;28;20382;-55
2022/09/28 11:58:19;;;;;;;7.60;2.13;;;13.10;9.40;;;;;;5089634;28;20877;-56
2022/09/28 12:00:50;;;;;;;6.00;1.40;;;14.90;1.00;;;;;;5089120;28;20398;-56
2022/09/28 12:03:44;;;;;;;7.50;1.67;;;14.90;1.00;;;;;;5089921;28;20432;-55
2022/09/28 12:06:21;;;;;;;5.53;1.50;;;14.60;1.00;;;;;;5089316;28;20388;-55
2022/09/28 12:08:54;;;;;;;6.93;1.80;;;14.70;1.00;;;;;;5089360;28;20409;-55
2022/09/28 12:11:26;;;;;;;7.03;1.80;;;15.00;1.00;;;;;;5090151;28;20405;-55
2022/09/28 12:13:56;;;;;;;5.70;1.60;;;15.20;1.00;;;;;;5081509;28;20745;-55
2022/09/28 12:16:36;;;;;;;6.88;1.88;;;15.10;1.00;;;;;;5069635;28;20449;-55
2022/09/28 12:19:14;;;;;;;6.90;1.40;;;15.10;1.00;;;;;;5069522;28;20390;-55
2022/09/28 12:21:53;;;;;;;5.90;1.50;;;14.90;1.00;;;;;;5079258;28;20945;-55
2022/09/28 12:24:27;;;;;;;6.00;1.40;;;14.80;1.00;;;;;;5089559;28;20374;-55
2022/09/28 12:27:03;;;;;;;5.38;1.30;;;14.70;1.00;;;;;;5089500;28;20422;-55
2022/09/28 12:29:36;;;;;;;5.78;1.20;;;14.70;1.00;;;;;;5089215;28;20433;-55
2022/09/28 12:32:17;;;;;;;7.63;1.80;;;14.60;1.00;;;;;;5089780;28;20386;-54
2022/09/28 12:34:42;;;;;;;7.15;1.80;;;14.80;1.00;;;;;;5089580;28;20465;-55
2022/09/28 12:37:26;;;;;;;7.70;1.63;;;14.90;1.00;;;;;;5089038;28;20432;-55
2022/09/28 12:40:10;;;;;;;5.78;1.70;;;14.90;1.00;;;;;;5088909;28;20378;-55
2022/09/28 12:42:51;;;;;;;5.75;1.30;;;15.00;1.00;;;;;;5091630;28;20475;-55
2022/09/28 12:45:38;;;;;;;8.45;1.60;;;14.90;1.00;;;;;;5093535;28;20401;-55
2022/09/28 12:48:23;;;;;;;6.40;1.40;;;14.90;1.00;;;;;;5093476;28;20441;-55
2022/09/28 12:51:10;;;;;;;8.23;1.30;;;14.90;1.00;;;;;;5091811;28;20414;-55
2022/09/28 12:53:55;;;;;;;6.25;1.90;;;15.00;1.00;;;;;;5092301;28;20382;-55
2022/09/28 12:56:39;;;;;;;7.20;1.50;;;15.30;1.00;;;;;;5093120;28;20429;-55
2022/09/28 12:59:17;;;;;;;6.75;1.30;;;15.20;1.00;;;;;;5092755;28;20489;-55
2022/09/28 13:01:55;;;;;;;6.05;1.80;;;15.10;1.00;;;;;;5092071;28;20925;-56
2022/09/28 13:04:44;;;;;;;5.40;1.40;;;14.90;1.00;;;;;;5093227;28;20373;-55
2022/09/28 13:07:19;;;;;;;6.75;1.55;;;14.90;1.00;;;;;;5093141;28;20717;-56
2022/09/28 13:10:25;;;;;;;7.40;1.60;;;14.90;1.00;;;;;;5092088;28;20393;-55
2022/09/28 13:12:51;;;;;;;6.38;1.50;;;15.10;1.00;;;;;;5092131;28;20423;-55
2022/09/28 13:15:33;;;;;;;6.70;1.80;;;15.00;1.00;;;;;;5072320;28;20384;-55
2022/09/28 13:18:17;;;;;;;5.72;1.30;;;15.10;1.00;;;;;;5072331;28;20457;-55
2022/09/28 13:21:03;;;;;;;5.43;1.40;;;15.30;1.00;;;;;;5074055;28;20433;-54
2022/09/28 13:23:40;;;;;;;7.32;1.77;;;15.20;1.00;;;;;;5092365;28;20421;-54
2022/09/28 13:26:23;;;;;;;6.30;1.40;;;15.20;1.00;;;;;;5092478;28;20386;-54